createdAt,value
2023-05-19T00:02:26.147Z,46.36
2023-05-19T00:04:53.202Z,46.21
2023-05-19T00:07:23.758Z,46.70
2023-05-19T00:09:50.965Z,46.49
2023-05-19T00:12:17.811Z,46.44
2023-05-19T00:14:44.596Z,46.53
2023-05-19T00:17:11.444Z,46.56
2023-05-19T00:19:38.207Z,46.54
2023-05-19T00:22:05.285Z,46.78
2023-05-19T00:24:32.082Z,46.64
2023-05-19T00:26:58.639Z,46.57
2023-05-19T00:29:25.315Z,46.64
2023-05-19T00:31:51.896Z,46.47
2023-05-19T00:34:18.491Z,46.77
2023-05-19T00:36:45.034Z,46.80
2023-05-19T00:39:11.679Z,46.77
2023-05-19T00:41:38.277Z,46.67
2023-05-19T00:44:05.006Z,46.81
2023-05-19T00:46:31.600Z,46.59
2023-05-19T00:48:58.213Z,46.88
2023-05-19T00:54:17.254Z,46.90
2023-05-19T00:56:43.757Z,47.11
2023-05-19T00:59:10.417Z,47.22
2023-05-19T01:01:37.252Z,47.47
2023-05-19T01:04:04.563Z,47.50
2023-05-19T01:06:31.157Z,47.30
2023-05-19T01:08:58.217Z,47.42
2023-05-19T01:11:24.672Z,47.45
2023-05-19T01:13:51.521Z,47.42
2023-05-19T01:16:48.803Z,48.29
2023-05-19T01:19:25.505Z,48.08
2023-05-19T01:22:22.812Z,48.08
2023-05-19T01:25:04.585Z,48.17
2023-05-19T01:27:49.860Z,48.27
2023-05-19T01:30:38.149Z,48.42
2023-05-19T01:33:08.665Z,47.97
2023-05-19T01:35:37.640Z,48.10
2023-05-19T01:38:07.853Z,47.72
2023-05-19T01:40:35.727Z,47.68
2023-05-19T01:43:02.886Z,47.89
2023-05-19T01:45:31.871Z,48.03
2023-05-19T01:48:03.046Z,48.74
2023-05-19T01:50:30.723Z,48.12
2023-05-19T01:52:57.603Z,48.12
2023-05-19T01:55:24.340Z,48.33
2023-05-19T01:58:22.726Z,49.50
2023-05-19T02:00:56.625Z,48.28
2023-05-19T02:03:26.322Z,48.16
2023-05-19T02:06:01.777Z,49.55
2023-05-19T02:08:41.457Z,49.52
2023-05-19T02:11:16.568Z,49.44
2023-05-19T02:13:44.687Z,48.71
2023-05-19T02:16:13.491Z,48.55
2023-05-19T02:18:40.542Z,48.75
2023-05-19T02:21:07.245Z,48.84
2023-05-19T02:23:33.742Z,48.98
2023-05-19T02:26:01.122Z,49.02
2023-05-19T02:28:28.419Z,48.97
2023-05-19T02:30:55.125Z,49.41
2023-05-19T02:33:24.660Z,49.41
2023-05-19T02:35:51.279Z,49.54
2023-05-19T02:38:18.192Z,49.34
2023-05-19T02:40:44.675Z,49.50
2023-05-19T02:43:11.188Z,49.78
2023-05-19T02:45:37.710Z,49.45
2023-05-19T02:48:04.693Z,49.87
2023-05-19T02:50:31.363Z,49.70
2023-05-19T02:52:58.123Z,49.82
2023-05-19T02:55:24.553Z,49.89
2023-05-19T02:57:51.347Z,49.68
2023-05-19T03:00:17.938Z,49.69
2023-05-19T03:02:44.521Z,50.17
2023-05-19T03:05:11.397Z,49.71
2023-05-19T03:07:37.880Z,50.02
2023-05-19T03:10:06.492Z,49.86
2023-05-19T03:12:33.621Z,49.97
2023-05-19T03:15:01.057Z,50.11
2023-05-19T03:17:28.631Z,49.88
2023-05-19T03:19:55.731Z,49.63
2023-05-19T03:22:22.299Z,49.73
2023-05-19T03:24:51.139Z,49.94
2023-05-19T03:27:17.812Z,49.89
2023-05-19T03:29:44.273Z,50.00
2023-05-19T03:32:10.883Z,50.01
2023-05-19T03:34:37.509Z,50.03
2023-05-19T03:37:04.153Z,50.19
2023-05-19T03:39:30.934Z,50.17
2023-05-19T03:41:57.501Z,50.09
2023-05-19T03:44:24.181Z,50.19
2023-05-19T03:46:50.791Z,50.35
2023-05-19T03:49:18.584Z,50.28
2023-05-19T03:51:45.038Z,50.52
2023-05-19T03:54:11.520Z,50.54
2023-05-19T03:56:40.071Z,51.14
2023-05-19T03:59:07.275Z,50.58
2023-05-19T04:01:33.865Z,50.29
2023-05-19T04:04:00.404Z,50.59
2023-05-19T04:06:27.026Z,50.79
2023-05-19T04:08:53.510Z,50.63
2023-05-19T04:11:20.297Z,50.63
2023-05-19T04:13:46.861Z,50.74
2023-05-19T04:16:13.924Z,50.88
2023-05-19T04:18:40.577Z,50.55
2023-05-19T04:21:08.716Z,50.80
2023-05-19T04:23:35.166Z,50.90
2023-05-19T04:26:02.425Z,50.73
2023-05-19T04:28:29.939Z,50.88
2023-05-19T04:30:58.711Z,50.87
2023-05-19T04:33:25.386Z,51.12
2023-05-19T04:35:51.938Z,50.96
2023-05-19T04:38:19.983Z,50.87
2023-05-19T04:40:46.475Z,51.04
2023-05-19T04:43:13.066Z,51.19
2023-05-19T04:45:42.493Z,51.31
2023-05-19T04:48:09.163Z,51.26
2023-05-19T04:50:38.537Z,51.23
2023-05-19T04:53:05.054Z,51.28
2023-05-19T04:55:32.827Z,51.23
2023-05-19T04:57:59.291Z,51.20
2023-05-19T05:00:25.970Z,51.07
2023-05-19T05:02:52.502Z,50.89
2023-05-19T05:05:19.037Z,51.06
2023-05-19T05:07:45.965Z,51.18
2023-05-19T05:10:12.493Z,51.21
2023-05-19T05:12:39.234Z,51.38
2023-05-19T05:15:07.039Z,51.33
2023-05-19T05:17:35.487Z,51.39
2023-05-19T05:20:04.697Z,51.28
2023-05-19T05:22:31.474Z,51.31
2023-05-19T05:24:58.263Z,51.56
2023-05-19T05:27:24.818Z,51.28
2023-05-19T05:29:52.629Z,51.52
2023-05-19T05:32:19.187Z,51.25
2023-05-19T05:34:45.932Z,51.96
2023-05-19T05:37:14.603Z,51.32
2023-05-19T05:39:41.790Z,51.21
2023-05-19T05:42:11.318Z,51.33
2023-05-19T05:44:37.777Z,51.19
2023-05-19T05:47:04.837Z,51.23
2023-05-19T05:49:31.677Z,51.39
2023-05-19T05:52:05.729Z,51.26
2023-05-19T05:54:33.332Z,50.99
2023-05-19T05:57:00.074Z,50.90
2023-05-19T05:59:26.640Z,50.94
2023-05-19T06:01:53.111Z,50.94
2023-05-19T06:04:21.037Z,50.75
2023-05-19T06:06:47.754Z,50.97
2023-05-19T06:09:14.286Z,50.93
2023-05-19T06:11:40.993Z,51.01
2023-05-19T06:14:07.474Z,51.23
2023-05-19T06:16:34.100Z,51.12
2023-05-19T06:19:00.635Z,50.98
2023-05-19T06:21:27.201Z,50.91
2023-05-19T06:23:54.227Z,50.75
2023-05-19T06:26:20.932Z,50.81
2023-05-19T06:28:47.390Z,50.69
2023-05-19T06:31:13.916Z,50.44
2023-05-19T06:33:41.960Z,50.33
2023-05-19T06:36:10.059Z,50.31
2023-05-19T06:38:36.611Z,50.58
2023-05-19T06:41:03.092Z,50.31
2023-05-19T06:43:30.305Z,50.28
2023-05-19T06:45:57.017Z,50.31
2023-05-19T06:48:23.568Z,50.07
2023-05-19T06:50:51.050Z,50.03
2023-05-19T06:53:19.809Z,50.06
2023-05-19T06:55:58.139Z,50.09
2023-05-19T06:58:26.812Z,50.05
2023-05-19T07:00:53.809Z,50.20
2023-05-19T07:03:20.691Z,50.08
2023-05-19T07:05:47.582Z,50.22
2023-05-19T07:08:14.052Z,50.00
2023-05-19T07:10:40.541Z,49.95
2023-05-19T07:13:07.111Z,50.04
2023-05-19T07:15:33.854Z,50.07
2023-05-19T07:18:00.600Z,50.07
2023-05-19T07:20:27.203Z,50.04
2023-05-19T07:22:53.805Z,50.21
2023-05-19T07:25:20.652Z,50.21
2023-05-19T07:27:47.490Z,50.11
2023-05-19T07:30:14.067Z,50.12
2023-05-19T07:32:40.815Z,50.00
2023-05-19T07:35:07.700Z,49.91
2023-05-19T07:37:34.368Z,49.81
2023-05-19T07:40:01.025Z,49.74
2023-05-19T07:42:27.554Z,49.83
2023-05-19T07:44:54.109Z,49.83
2023-05-19T07:47:20.793Z,50.32
2023-05-19T07:49:49.096Z,50.02
2023-05-19T07:52:18.317Z,49.83
2023-05-19T07:54:46.131Z,49.70
2023-05-19T07:57:12.672Z,49.51
2023-05-19T07:59:39.143Z,49.39
2023-05-19T08:02:06.406Z,49.23
2023-05-19T08:04:33.090Z,49.13
2023-05-19T08:06:59.843Z,49.18
2023-05-19T08:09:26.643Z,48.92
2023-05-19T08:11:53.477Z,48.69
2023-05-19T08:14:22.711Z,48.95
2023-05-19T08:16:50.122Z,48.58
2023-05-19T08:19:16.774Z,48.52
2023-05-19T08:21:45.163Z,48.10
2023-05-19T08:24:11.899Z,48.14
2023-05-19T08:26:38.443Z,48.51
2023-05-19T08:29:05.512Z,48.13
2023-05-19T08:31:32.578Z,48.12
2023-05-19T08:33:59.296Z,47.88
2023-05-19T08:36:25.963Z,48.39
2023-05-19T08:38:52.525Z,48.21
2023-05-19T08:41:19.312Z,47.60
2023-05-19T08:43:45.960Z,47.06
2023-05-19T08:46:15.051Z,46.64
2023-05-19T08:48:43.105Z,46.63
2023-05-19T08:51:33.633Z,45.96
2023-05-19T08:54:14.599Z,45.81
2023-05-19T08:56:43.340Z,45.91
2023-05-19T08:59:10.577Z,46.42
2023-05-19T09:04:10.182Z,45.92
2023-05-19T09:06:36.821Z,45.59
2023-05-19T09:09:04.234Z,45.43
2023-05-19T09:11:30.906Z,45.64
2023-05-19T09:13:57.445Z,45.30
2023-05-19T09:16:25.508Z,44.83
2023-05-19T09:18:57.558Z,43.71
2023-05-19T09:21:31.175Z,43.38
2023-05-19T09:24:06.335Z,43.27
2023-05-19T09:26:40.654Z,43.43
2023-05-19T09:29:17.897Z,43.43
2023-05-19T09:32:00.518Z,42.95
2023-05-19T09:34:27.736Z,43.33
2023-05-19T09:36:54.489Z,42.93
2023-05-19T09:39:22.957Z,42.46
2023-05-19T09:41:54.287Z,41.99
2023-05-19T09:44:21.270Z,42.04
2023-05-19T09:46:52.863Z,41.81
2023-05-19T09:49:24.655Z,41.06
2023-05-19T09:51:59.063Z,40.81
2023-05-19T09:54:28.454Z,41.42
2023-05-19T09:57:07.865Z,40.19
2023-05-19T09:59:35.789Z,41.08
2023-05-19T10:02:02.932Z,40.30
2023-05-19T10:04:30.998Z,40.14
2023-05-19T10:07:05.536Z,39.75
2023-05-19T10:09:34.035Z,40.19
2023-05-19T10:12:01.042Z,40.11
2023-05-19T10:14:29.645Z,40.33
2023-05-19T10:16:58.566Z,39.70
2023-05-19T10:19:27.279Z,38.86
2023-05-19T10:21:54.620Z,39.29
2023-05-19T10:24:21.742Z,38.78
2023-05-19T10:26:55.212Z,38.46
2023-05-19T10:29:34.901Z,38.63
2023-05-19T10:32:08.193Z,38.22
2023-05-19T10:34:57.147Z,37.59
2023-05-19T10:37:50.575Z,39.05
2023-05-19T10:40:25.914Z,39.80
2023-05-19T10:43:20.321Z,39.08
2023-05-19T10:45:54.348Z,39.37
2023-05-19T10:48:22.574Z,39.66
2023-05-19T10:50:52.919Z,39.45
2023-05-19T10:53:22.476Z,39.53
2023-05-19T10:55:56.314Z,37.37
2023-05-19T10:58:45.381Z,37.51
2023-05-19T11:01:16.943Z,35.58
2023-05-19T11:03:54.294Z,35.15
2023-05-19T11:06:29.601Z,34.88
2023-05-19T11:09:16.543Z,34.54
2023-05-19T11:11:48.377Z,33.54
2023-05-19T11:14:21.492Z,34.33
2023-05-19T11:16:49.732Z,33.34
2023-05-19T11:19:28.499Z,32.36
2023-05-19T11:21:56.451Z,31.74
2023-05-19T11:24:44.763Z,32.28
2023-05-19T11:27:38.522Z,34.13
2023-05-19T11:30:14.810Z,32.44
2023-05-19T11:32:42.852Z,33.44
2023-05-19T11:35:10.224Z,33.02
2023-05-19T11:37:37.178Z,32.85
2023-05-19T11:40:06.991Z,32.04
2023-05-19T11:42:34.909Z,32.19
2023-05-19T11:45:01.830Z,31.18
2023-05-19T11:47:28.556Z,31.03
2023-05-19T11:49:56.785Z,30.42
2023-05-19T11:52:29.483Z,31.26
2023-05-19T11:54:56.893Z,32.96
2023-05-19T11:57:23.431Z,32.36
2023-05-19T11:59:52.285Z,32.60
2023-05-19T12:02:21.421Z,31.55
2023-05-19T12:04:49.440Z,30.67
2023-05-19T12:07:19.975Z,29.69
2023-05-19T12:09:47.339Z,29.47
2023-05-19T12:12:19.118Z,29.10
2023-05-19T12:14:52.827Z,28.94
2023-05-19T12:17:20.948Z,29.24
2023-05-19T12:19:48.983Z,29.94
2023-05-19T12:22:17.228Z,30.19
2023-05-19T12:24:45.135Z,30.19
2023-05-19T12:27:23.153Z,29.70
2023-05-19T12:29:54.156Z,29.50
2023-05-19T12:32:28.880Z,29.14
2023-05-19T12:34:58.827Z,28.71
2023-05-19T12:37:30.158Z,29.48
2023-05-19T12:39:57.647Z,30.52
2023-05-19T12:42:31.234Z,29.95
2023-05-19T12:45:00.881Z,29.73
2023-05-19T12:47:34.888Z,31.07
2023-05-19T12:50:05.412Z,31.64
2023-05-19T12:52:35.513Z,29.85
2023-05-19T12:55:11.196Z,29.04
2023-05-19T12:57:39.160Z,28.20
2023-05-19T13:00:13.854Z,28.12
2023-05-19T13:03:04.839Z,28.64
2023-05-19T13:05:33.802Z,28.36
2023-05-19T13:08:04.931Z,28.97
2023-05-19T13:10:32.158Z,30.24
2023-05-19T13:13:00.320Z,30.81
2023-05-19T13:15:31.686Z,29.83
2023-05-19T13:17:58.674Z,29.42
2023-05-19T13:20:27.648Z,29.40
2023-05-19T13:22:55.967Z,28.61
2023-05-19T13:25:22.703Z,28.31
2023-05-19T13:27:49.632Z,27.66
2023-05-19T13:30:16.418Z,27.34
2023-05-19T13:32:43.010Z,26.33
2023-05-19T13:35:10.391Z,25.10
2023-05-19T13:37:36.945Z,24.85
2023-05-19T13:40:03.707Z,25.53
2023-05-19T13:42:31.787Z,25.61
2023-05-19T13:44:58.341Z,25.67
2023-05-19T13:47:24.982Z,25.17
2023-05-19T13:49:51.968Z,24.51
2023-05-19T13:52:20.618Z,23.95
2023-05-19T13:54:48.469Z,24.63
2023-05-19T13:57:15.893Z,25.53
2023-05-19T13:59:57.762Z,25.20
2023-05-19T14:02:27.380Z,25.31
2023-05-19T14:04:54.307Z,25.74
2023-05-19T14:07:21.156Z,24.84
2023-05-19T14:09:47.771Z,24.73
2023-05-19T14:12:14.378Z,23.78
2023-05-19T14:14:40.943Z,23.65
2023-05-19T14:17:07.483Z,23.10
2023-05-19T14:19:34.007Z,22.87
2023-05-19T14:22:00.466Z,23.66
2023-05-19T14:24:26.979Z,24.57
2023-05-19T14:26:53.803Z,24.27
2023-05-19T14:29:20.307Z,23.58
2023-05-19T14:31:46.980Z,23.37
2023-05-19T14:34:17.765Z,23.54
2023-05-19T14:36:44.652Z,23.31
2023-05-19T14:39:11.888Z,24.07
2023-05-19T14:41:38.444Z,24.22
2023-05-19T14:44:05.558Z,24.10
2023-05-19T14:46:32.577Z,24.13
2023-05-19T14:48:59.072Z,24.21
2023-05-19T14:51:25.746Z,25.32
2023-05-19T14:53:52.292Z,25.70
2023-05-19T14:56:18.728Z,25.27
2023-05-19T14:58:45.206Z,24.32
2023-05-19T15:01:11.840Z,24.25
2023-05-19T15:03:38.410Z,24.00
2023-05-19T15:06:09.336Z,23.90
2023-05-19T15:08:37.689Z,24.05
2023-05-19T15:11:04.678Z,24.57
2023-05-19T15:13:31.309Z,25.38
2023-05-19T15:16:12.428Z,25.95
2023-05-19T15:18:41.956Z,26.15
2023-05-19T15:21:08.484Z,25.95
2023-05-19T15:23:34.956Z,26.09
2023-05-19T15:26:01.488Z,25.29
2023-05-19T15:28:28.017Z,24.14
2023-05-19T15:30:54.561Z,23.43
2023-05-19T15:33:21.228Z,23.04
2023-05-19T15:35:51.522Z,22.46
2023-05-19T15:38:19.503Z,22.80
2023-05-19T15:40:46.726Z,22.87
2023-05-19T15:43:13.560Z,23.80
2023-05-19T15:45:40.800Z,24.38
2023-05-19T15:48:07.571Z,24.54
2023-05-19T15:50:34.404Z,24.60
2023-05-19T15:53:01.054Z,25.03
2023-05-19T15:55:27.608Z,24.84
2023-05-19T15:57:54.177Z,24.30
2023-05-19T16:00:20.814Z,24.13
2023-05-19T16:02:47.397Z,24.01
2023-05-19T16:05:13.962Z,23.85
2023-05-19T16:07:42.084Z,23.70
2023-05-19T16:10:09.074Z,23.44
2023-05-19T16:12:36.715Z,23.43
2023-05-19T16:15:03.806Z,23.45
2023-05-19T16:17:30.653Z,23.23
2023-05-19T16:19:57.259Z,23.45
2023-05-19T16:22:24.892Z,23.70
2023-05-19T16:24:52.297Z,24.01
2023-05-19T16:27:19.176Z,24.24
2023-05-19T16:29:45.889Z,24.09
2023-05-19T16:32:12.790Z,23.96
2023-05-19T16:34:39.542Z,24.38
2023-05-19T16:37:06.097Z,24.68
2023-05-19T16:39:32.685Z,25.64
2023-05-19T16:41:59.197Z,26.41
2023-05-19T16:44:26.078Z,26.66
2023-05-19T16:46:52.591Z,26.95
2023-05-19T16:49:19.124Z,27.41
2023-05-19T16:51:46.823Z,27.41
2023-05-19T16:54:14.719Z,26.88
2023-05-19T16:56:41.263Z,26.68
2023-05-19T16:59:09.555Z,26.88
2023-05-19T17:01:36.134Z,26.90
2023-05-19T17:04:02.764Z,27.17
2023-05-19T17:06:29.859Z,26.94
2023-05-19T17:08:56.459Z,27.14
2023-05-19T17:11:22.929Z,27.31
2023-05-19T17:13:49.427Z,27.28
2023-05-19T17:16:16.053Z,27.26
2023-05-19T17:18:43.668Z,27.70
2023-05-19T17:21:10.611Z,27.88
2023-05-19T17:23:37.846Z,27.99
2023-05-19T17:26:04.557Z,27.93
2023-05-19T17:28:31.090Z,27.98
2023-05-19T17:30:57.755Z,28.06
2023-05-19T17:33:24.425Z,27.99
2023-05-19T17:35:51.038Z,27.83
2023-05-19T17:38:17.648Z,28.28
2023-05-19T17:40:44.421Z,28.22
2023-05-19T17:43:11.167Z,28.41
2023-05-19T17:45:37.661Z,28.56
2023-05-19T17:48:04.836Z,28.79
2023-05-19T17:50:31.540Z,28.92
2023-05-19T17:52:58.564Z,29.03
2023-05-19T17:55:29.736Z,29.03
2023-05-19T17:57:57.359Z,29.25
2023-05-19T18:00:25.174Z,29.39
2023-05-19T18:02:52.254Z,29.59
2023-05-19T18:05:19.335Z,29.70
2023-05-19T18:07:46.160Z,30.04
2023-05-19T18:10:16.187Z,29.80
2023-05-19T18:12:42.664Z,29.58
2023-05-19T18:15:09.521Z,29.69
2023-05-19T18:17:36.111Z,29.84
2023-05-19T18:20:02.782Z,29.73
2023-05-19T18:22:29.337Z,30.00
2023-05-19T18:24:57.636Z,30.07
2023-05-19T18:27:24.185Z,29.85
2023-05-19T18:29:50.683Z,30.28
2023-05-19T18:32:17.745Z,30.06
2023-05-19T18:34:44.341Z,30.11
2023-05-19T18:37:10.855Z,30.36
2023-05-19T18:39:37.509Z,30.56
2023-05-19T18:42:04.376Z,30.48
2023-05-19T18:44:31.120Z,30.92
2023-05-19T18:46:57.711Z,30.93
2023-05-19T18:49:25.107Z,31.23
2023-05-19T18:51:52.027Z,31.18
2023-05-19T18:56:48.090Z,31.55
2023-05-19T18:59:14.700Z,31.47
2023-05-19T19:01:41.427Z,31.56
2023-05-19T19:04:08.309Z,31.31
2023-05-19T19:06:34.961Z,31.29
2023-05-19T19:09:01.499Z,31.68
2023-05-19T19:11:28.092Z,31.58
2023-05-19T19:13:56.573Z,31.44
2023-05-19T19:16:23.305Z,31.77
2023-05-19T19:18:50.119Z,31.82
2023-05-19T19:21:19.251Z,32.02
2023-05-19T19:23:45.880Z,32.06
2023-05-19T19:26:12.402Z,32.03
2023-05-19T19:28:38.957Z,32.60
2023-05-19T19:31:05.545Z,32.12
2023-05-19T19:33:32.156Z,32.50
2023-05-19T19:35:58.718Z,32.08
2023-05-19T19:38:25.180Z,32.80
2023-05-19T19:40:52.485Z,32.70
2023-05-19T19:43:19.258Z,32.83
2023-05-19T19:45:45.747Z,33.12
2023-05-19T19:48:12.499Z,33.01
2023-05-19T19:50:41.899Z,33.20
2023-05-19T19:53:08.866Z,32.97
2023-05-19T19:55:35.555Z,33.63
2023-05-19T19:58:02.122Z,33.86
2023-05-19T20:00:28.621Z,34.47
2023-05-19T20:03:05.061Z,34.42
2023-05-19T20:05:32.396Z,35.17
2023-05-19T20:07:59.038Z,35.10
2023-05-19T20:10:25.554Z,34.55
2023-05-19T20:12:52.354Z,34.97
2023-05-19T20:15:18.956Z,35.12
2023-05-19T20:17:45.770Z,34.47
2023-05-19T20:20:12.840Z,34.94
2023-05-19T20:22:39.704Z,35.37
2023-05-19T20:25:06.613Z,35.40
2023-05-19T20:27:33.178Z,35.53
2023-05-19T20:29:59.791Z,35.16
2023-05-19T20:32:26.401Z,35.54
2023-05-19T20:34:53.010Z,35.48
2023-05-19T20:37:20.973Z,35.88
2023-05-19T20:39:47.818Z,35.66
2023-05-19T20:42:14.336Z,35.70
2023-05-19T20:44:41.028Z,35.75
2023-05-19T20:47:08.243Z,36.01
2023-05-19T20:49:35.041Z,35.94
2023-05-19T20:52:01.640Z,36.44
2023-05-19T20:54:28.240Z,36.17
2023-05-19T20:56:54.801Z,36.51
2023-05-19T20:59:21.421Z,36.70
2023-05-19T21:01:48.064Z,36.35
2023-05-19T21:04:14.777Z,36.54
2023-05-19T21:06:41.337Z,36.51
2023-05-19T21:09:07.974Z,36.78
2023-05-19T21:11:34.570Z,36.69
2023-05-19T21:14:03.893Z,37.17
2023-05-19T21:16:31.205Z,36.99
2023-05-19T21:18:57.882Z,37.25
2023-05-19T21:21:24.572Z,37.30
2023-05-19T21:23:51.086Z,37.37
2023-05-19T21:26:17.979Z,37.34
2023-05-19T21:28:44.546Z,37.34
2023-05-19T21:31:11.316Z,37.63
2023-05-19T21:33:37.887Z,37.60
2023-05-19T21:36:04.732Z,37.73
2023-05-19T21:38:31.371Z,37.75
2023-05-19T21:40:58.015Z,38.22
2023-05-19T21:43:24.578Z,38.20
2023-05-19T21:45:51.102Z,38.28
2023-05-19T21:48:17.881Z,38.37
2023-05-19T21:50:44.572Z,38.29
2023-05-19T21:53:11.086Z,38.48
2023-05-19T21:55:37.740Z,39.18
2023-05-19T21:58:04.345Z,38.92
2023-05-19T22:00:30.916Z,39.01
2023-05-19T22:02:57.520Z,39.09
2023-05-19T22:05:24.099Z,39.10
2023-05-19T22:07:50.668Z,39.02
2023-05-19T22:10:17.409Z,39.31
2023-05-19T22:12:43.926Z,39.66
2023-05-19T22:15:11.421Z,39.71
2023-05-19T22:17:37.925Z,39.77
2023-05-19T22:20:05.382Z,39.89
2023-05-19T22:22:31.852Z,39.99
2023-05-19T22:24:58.613Z,40.09
2023-05-19T22:27:25.146Z,40.12
2023-05-19T22:29:51.624Z,40.54
2023-05-19T22:32:19.478Z,40.31
2023-05-19T22:34:46.320Z,40.51
2023-05-19T22:37:13.036Z,40.43
2023-05-19T22:39:39.607Z,40.74
2023-05-19T22:42:06.187Z,40.55
2023-05-19T22:44:32.690Z,40.96
2023-05-19T22:46:59.212Z,40.97
2023-05-19T22:49:27.357Z,40.91
2023-05-19T22:51:53.918Z,40.90
2023-05-19T22:54:20.503Z,41.30
2023-05-19T22:56:49.050Z,41.39
2023-05-19T22:59:17.933Z,41.50
2023-05-19T23:01:46.477Z,41.90
2023-05-19T23:04:13.964Z,41.73
2023-05-19T23:06:40.783Z,41.65
2023-05-19T23:09:07.699Z,41.84
2023-05-19T23:11:35.852Z,41.68
2023-05-19T23:14:02.577Z,42.00
2023-05-19T23:16:29.185Z,41.93
2023-05-19T23:18:55.866Z,42.06
2023-05-19T23:21:22.474Z,41.99
2023-05-19T23:23:49.767Z,42.25
2023-05-19T23:26:16.469Z,42.14
2023-05-19T23:28:43.284Z,42.43
2023-05-19T23:31:10.169Z,42.41
2023-05-19T23:33:36.807Z,42.39
2023-05-19T23:36:08.284Z,42.99
2023-05-19T23:38:38.071Z,42.38
2023-05-19T23:41:05.170Z,42.69
2023-05-19T23:43:34.799Z,42.87
2023-05-19T23:46:01.576Z,42.90
2023-05-19T23:48:29.333Z,43.07
2023-05-19T23:50:56.919Z,43.16
2023-05-19T23:53:23.787Z,43.27
2023-05-19T23:55:51.381Z,43.25
2023-05-19T23:58:18.153Z,43.39
